Pride of Baltimore II — WUW2120 — position and weather

sailwx.info

Track history (hours):
 
Tides and Currents Weather Stations Pressure Air Temp Water Temp Dewpoint Dewpoint Depression Visibility Wind Speed Wind Dir Waves Ship Positions

Pride of Baltimore II (United States)

Reproduction of an 1812-era Baltimore Clipper privateer.

Ship's website: http://www.pride2.org/

Owner: PRIDE OF BALTIMORE INC, BALTIMORE, MD. More information available from US FCC via Universal Licensing System and Coast Guard Vessel Documentation Center.

Last reported at 2017-Aug-23 11:59 UTC. Time now 2017-Aug-23 11:57 UTC.
Position N 39°17' W 076°37'.

Type: Sailing vessel. MMSI: 303302000.

Date/timePositionNaut miles runAvg speedWind from/ knotsBaromVisibWave heightAir tempDewpointWater temp
2017-Aug-23 11:59N 39°17' W 076°37'0 0.0
2017-Aug-23 11:29N 39°17' W 076°37'0 0.0
2017-Aug-23 10:59N 39°17' W 076°37'0 0.0
2017-Aug-23 10:29N 39°17' W 076°37'0 0.0
2017-Aug-23 09:59N 39°17' W 076°37'0 0.0
2017-Aug-23 09:29N 39°17' W 076°37'0 0.0
2017-Aug-23 08:59N 39°17' W 076°37'0 0.0
2017-Aug-23 08:29N 39°17' W 076°37'0 0.0
2017-Aug-23 07:59N 39°17' W 076°37'0 0.0
2017-Aug-23 07:23N 39°17' W 076°37'0 0.0
2017-Aug-23 06:59N 39°17' W 076°37'0 0.0
2017-Aug-23 06:29N 39°17' W 076°37'0 0.0
2017-Aug-23 05:59N 39°17' W 076°37'0 0.0
2017-Aug-23 05:29N 39°17' W 076°37'0 0.0
2017-Aug-23 04:59N 39°17' W 076°37'0 0.0
2017-Aug-23 04:29N 39°17' W 076°37'0 0.0
2017-Aug-23 03:59N 39°17' W 076°37'0 0.0
2017-Aug-23 03:28N 39°17' W 076°37'0 0.0
2017-Aug-23 02:58N 39°17' W 076°37'0 0.0
2017-Aug-23 02:28N 39°17' W 076°37'0 0.0
2017-Aug-23 01:58N 39°17' W 076°37'0 0.0
2017-Aug-23 01:28N 39°17' W 076°37'0 0.0
2017-Aug-23 00:58N 39°17' W 076°37'0 0.0
2017-Aug-23 00:28N 39°17' W 076°37'0 0.0
2017-Aug-22 23:58N 39°17' W 076°37'0 0.0
2017-Aug-22 23:28N 39°17' W 076°37'0 0.0
2017-Aug-22 22:58N 39°17' W 076°37'0 0.5
2017-Aug-22 22:31N 39°17' W 076°36'3 5.9
2017-Aug-22 22:00N 39°15' W 076°34'4 8.0
2017-Aug-22 21:30N 39°12' W 076°30'4 8.8
2017-Aug-22 21:00N 39°10' W 076°25'10 6.1
2017-Aug-22 19:17N 39°16' W 076°14'3 7.1
2017-Aug-22 18:50N 39°19' W 076°12'3 7.5
2017-Aug-22 18:28N 39°21' W 076°10'4 7.7
2017-Aug-22 17:55N 39°23' W 076°05'3 7.6
2017-Aug-22 17:30N 39°25' W 076°02'4 7.3
2017-Aug-22 17:00N 39°28' W 075°59'4 7.2
2017-Aug-22 16:30N 39°30' W 075°55'3 6.5
2017-Aug-22 16:00N 39°32' W 075°51'3 6.3
2017-Aug-22 15:30N 39°32' W 075°47'3 6.1
2017-Aug-22 15:00N 39°33' W 075°44'3 5.8
2017-Aug-22 14:30N 39°33' W 075°40'3 5.5
2017-Aug-22 14:01N 39°33' W 075°36'3 5.2
2017-Aug-22 13:30N 39°34' W 075°33'3 6.3
2017-Aug-22 13:00N 39°37' W 075°35'4 7.3
2017-Aug-22 12:30N 39°40' W 075°32'4 8.2
2017-Aug-22 12:00N 39°44' W 075°30'4 8.3
2017-Aug-22 11:30N 39°47' W 075°27'4 8.5
2017-Aug-22 11:00N 39°50' W 075°22'4 8.7
2017-Aug-22 10:30N 39°51' W 075°17'4 8.5
2017-Aug-22 10:00N 39°53' W 075°12'4 7.6
2017-Aug-22 09:30N 39°55' W 075°08'2 3.8
2017-Aug-22 08:59N 39°57' W 075°08'0 0.0
2017-Aug-22 08:29N 39°57' W 075°08'0 0.0
2017-Aug-22 07:59N 39°57' W 075°08'0 0.0
2017-Aug-22 07:29N 39°57' W 075°08'0 0.0
2017-Aug-22 06:59N 39°57' W 075°08'0 0.0
2017-Aug-22 06:29N 39°57' W 075°08'0 0.0
2017-Aug-22 05:59N 39°57' W 075°08'0 0.0
2017-Aug-22 05:29N 39°57' W 075°08'0 0.0
2017-Aug-22 04:59N 39°57' W 075°08'0 0.0
2017-Aug-22 04:29N 39°57' W 075°08'0 0.0
2017-Aug-22 03:59N 39°57' W 075°08'0 0.0
2017-Aug-22 03:29N 39°57' W 075°08'0 0.0
2017-Aug-22 02:59N 39°57' W 075°08'0 0.0
2017-Aug-22 02:29N 39°57' W 075°08'0 0.0
2017-Aug-22 01:59N 39°57' W 075°08'0 0.0
2017-Aug-22 01:29N 39°57' W 075°08'0 0.0
2017-Aug-22 00:59N 39°57' W 075°08'0 0.0
2017-Aug-22 00:29N 39°57' W 075°08'0 0.0
2017-Aug-21 23:59N 39°57' W 075°08'0 0.0
2017-Aug-21 23:29N 39°57' W 075°08'0 0.0
2017-Aug-21 22:59N 39°57' W 075°08'0 0.0
2017-Aug-21 22:29N 39°57' W 075°08'0 0.0
2017-Aug-21 21:59N 39°57' W 075°08'0 0.0
2017-Aug-21 21:29N 39°57' W 075°08'0 0.0
2017-Aug-21 20:56N 39°57' W 075°08'0 0.0
2017-Aug-21 20:29N 39°57' W 075°08'0 0.0
2017-Aug-21 19:59N 39°57' W 075°08'0 0.0
2017-Aug-21 19:29N 39°57' W 075°08'0 0.0
2017-Aug-21 18:59N 39°57' W 075°08'0 0.0
2017-Aug-21 18:29N 39°57' W 075°08'0 0.0
2017-Aug-21 17:59N 39°57' W 075°08'0 0.0
2017-Aug-21 17:23N 39°57' W 075°08'0 0.0
2017-Aug-21 16:59N 39°57' W 075°08'0 0.0
2017-Aug-21 16:29N 39°57' W 075°08'0 0.0
2017-Aug-21 15:59N 39°57' W 075°08'0 0.0
2017-Aug-21 15:29N 39°57' W 075°08'0 0.0
2017-Aug-21 14:59N 39°57' W 075°08'0 0.0
2017-Aug-21 14:29N 39°57' W 075°08'0 0.0
2017-Aug-21 13:59N 39°57' W 075°08'0 0.0
2017-Aug-21 13:29N 39°57' W 075°08'0 0.0
2017-Aug-21 12:59N 39°57' W 075°08'0 0.0
2017-Aug-21 12:29N 39°57' W 075°08'0 0.0
2017-Aug-21 11:59N 39°57' W 075°08'0 0.0
2017-Aug-21 11:29N 39°57' W 075°08'0 0.0
2017-Aug-21 10:59N 39°57' W 075°08'0 0.0
2017-Aug-21 10:29N 39°57' W 075°08'0 0.0
2017-Aug-21 09:59N 39°57' W 075°08'0 0.0
2017-Aug-21 09:29N 39°57' W 075°08'0 0.0
2017-Aug-21 08:59N 39°57' W 075°08'0 0.0
2017-Aug-21 08:29N 39°57' W 075°08'0 0.0
2017-Aug-21 07:59N 39°57' W 075°08'0 0.0
2017-Aug-21 07:29N 39°57' W 075°08'0 0.0
2017-Aug-21 06:59N 39°57' W 075°08'0 0.0
2017-Aug-21 06:29N 39°57' W 075°08'0 0.0
2017-Aug-21 05:59N 39°57' W 075°08'0 0.0
2017-Aug-21 05:29N 39°57' W 075°08'0 0.0
2017-Aug-21 04:59N 39°57' W 075°08'0 0.0
2017-Aug-21 04:29N 39°57' W 075°08'0 0.0
2017-Aug-21 03:59N 39°57' W 075°08'0 0.0
2017-Aug-21 03:29N 39°57' W 075°08'0 0.0
2017-Aug-21 02:59N 39°57' W 075°08'0 0.0
2017-Aug-21 02:29N 39°57' W 075°08'0 0.0
2017-Aug-21 01:59N 39°57' W 075°08'0 0.0
2017-Aug-21 01:28N 39°57' W 075°08'0 0.0
2017-Aug-21 00:58N 39°57' W 075°08'0 0.0
2017-Aug-21 00:28N 39°57' W 075°08'0 0.0
2017-Aug-20 23:58N 39°57' W 075°08'0 0.0
2017-Aug-20 23:28N 39°57' W 075°08'0 0.0
2017-Aug-20 22:58N 39°57' W 075°08'0 0.0
2017-Aug-20 22:28N 39°57' W 075°08'0 0.0
2017-Aug-20 21:58N 39°57' W 075°08'0 0.0
2017-Aug-20 21:28N 39°57' W 075°08'0 0.0
2017-Aug-20 20:58N 39°57' W 075°08'2 3.4
2017-Aug-20 20:31N 39°55' W 075°08'1 2.0
2017-Aug-20 20:00N 39°54' W 075°08'2 3.5
2017-Aug-20 19:30N 39°56' W 075°08'1 1.5
2017-Aug-20 19:00N 39°57' W 075°08'0 0.0
2017-Aug-20 18:30N 39°57' W 075°08'0 0.0
2017-Aug-20 17:54N 39°57' W 075°08'0 0.0
2017-Aug-20 17:30N 39°57' W 075°08'0 0.0
2017-Aug-20 17:00N 39°57' W 075°08'0 0.0
2017-Aug-20 16:30N 39°57' W 075°08'0 0.0
2017-Aug-20 16:00N 39°57' W 075°08'0 0.0
2017-Aug-20 15:30N 39°57' W 075°08'0 0.0
2017-Aug-20 15:00N 39°57' W 075°08'0 0.0
2017-Aug-20 14:30N 39°57' W 075°08'0 0.0
2017-Aug-20 14:00N 39°57' W 075°08'0 0.0
2017-Aug-20 13:30N 39°57' W 075°08'0 0.0
2017-Aug-20 12:59N 39°57' W 075°08'0 0.0
2017-Aug-20 12:29N 39°57' W 075°08'0 0.0
2017-Aug-20 11:59N 39°57' W 075°08'0 0.0
2017-Aug-20 11:29N 39°57' W 075°08'0 0.0
2017-Aug-20 10:59N 39°57' W 075°08'0 0.0
2017-Aug-20 10:29N 39°57' W 075°08'0 0.0
2017-Aug-20 09:59N 39°57' W 075°08'0 0.0
2017-Aug-20 09:29N 39°57' W 075°08'0 0.0
2017-Aug-20 08:59N 39°57' W 075°08'0 0.0
2017-Aug-20 08:29N 39°57' W 075°08'0 0.0
2017-Aug-20 07:59N 39°57' W 075°08'0 0.0
2017-Aug-20 07:29N 39°57' W 075°08'0 0.0
2017-Aug-20 06:59N 39°57' W 075°08'0 0.0
2017-Aug-20 06:29N 39°57' W 075°08'0 0.0
2017-Aug-20 05:59N 39°57' W 075°08'0 0.0
2017-Aug-20 05:29N 39°57' W 075°08'0 0.0
2017-Aug-20 04:59N 39°57' W 075°08'0 0.0
2017-Aug-20 04:29N 39°57' W 075°08'0 0.0
2017-Aug-20 03:59N 39°57' W 075°08'0 0.0
2017-Aug-20 03:29N 39°57' W 075°08'0 0.0
2017-Aug-20 02:59N 39°57' W 075°08'0 0.0
2017-Aug-20 02:29N 39°57' W 075°08'0 0.0
2017-Aug-20 01:59N 39°57' W 075°08'0 0.0
2017-Aug-20 01:29N 39°57' W 075°08'0 0.0
2017-Aug-20 00:59N 39°57' W 075°08'0 0.0
2017-Aug-20 00:29N 39°57' W 075°08'0 0.0
2017-Aug-19 23:59N 39°57' W 075°08'0 0.0
2017-Aug-19 23:29N 39°57' W 075°08'0 0.0
2017-Aug-19 22:59N 39°57' W 075°08'0 0.0
2017-Aug-19 22:29N 39°57' W 075°08'0 0.0
2017-Aug-19 21:59N 39°57' W 075°08'0 0.0
2017-Aug-19 21:29N 39°57' W 075°08'0 0.0
2017-Aug-19 20:59N 39°57' W 075°08'0 1.0
2017-Aug-19 20:30N 39°56' W 075°08'2 3.7
2017-Aug-19 20:00N 39°54' W 075°08'0 0.5
2017-Aug-19 19:30N 39°55' W 075°08'2 4.1
2017-Aug-19 18:59N 39°57' W 075°08'0 0.0
2017-Aug-19 18:29N 39°57' W 075°08'0 0.0
2017-Aug-19 17:59N 39°57' W 075°08'0 0.0
2017-Aug-19 17:29N 39°57' W 075°08'0 0.0
2017-Aug-19 16:59N 39°57' W 075°08'0 0.0
2017-Aug-19 16:29N 39°57' W 075°08'0 0.0
2017-Aug-19 15:59N 39°57' W 075°08'0 0.0
2017-Aug-19 15:29N 39°57' W 075°08'0 0.0
2017-Aug-19 14:59N 39°57' W 075°08'0 0.0
2017-Aug-19 13:59N 39°57' W 075°08'0 0.0
2017-Aug-19 13:29N 39°57' W 075°08'0 0.0
2017-Aug-19 12:59N 39°57' W 075°08'0 0.0
2017-Aug-19 12:29N 39°57' W 075°08'0 0.0
2017-Aug-19 11:59N 39°57' W 075°08'0 0.0
2017-Aug-19 11:29N 39°57' W 075°08'0 0.0
2017-Aug-19 10:59N 39°57' W 075°08'0 0.0
2017-Aug-19 10:29N 39°57' W 075°08'0 0.0
2017-Aug-19 09:59N 39°57' W 075°08'0 0.0
2017-Aug-19 09:29N 39°57' W 075°08'0 0.0
2017-Aug-19 08:59N 39°57' W 075°08'0 0.0
2017-Aug-19 08:29N 39°57' W 075°08'0 0.0
2017-Aug-19 07:59N 39°57' W 075°08'0 0.0
2017-Aug-19 07:29N 39°57' W 075°08'0 0.0
2017-Aug-19 06:59N 39°57' W 075°08'0 0.0
2017-Aug-19 06:29N 39°57' W 075°08'0 0.0
2017-Aug-19 05:59N 39°57' W 075°08'0 0.0
2017-Aug-19 05:29N 39°57' W 075°08'0 0.0
2017-Aug-19 04:59N 39°57' W 075°08'0 0.0
2017-Aug-19 04:29N 39°57' W 075°08'0 0.0
2017-Aug-19 03:59N 39°57' W 075°08'0 0.0
2017-Aug-19 03:29N 39°57' W 075°08'0 0.0
2017-Aug-19 02:59N 39°57' W 075°08'0 0.0
2017-Aug-19 02:29N 39°57' W 075°08'0 0.0
2017-Aug-19 01:59N 39°57' W 075°08'0 0.0
2017-Aug-19 01:26N 39°57' W 075°08'0 0.0
2017-Aug-19 00:59N 39°57' W 075°08'0 0.0
2017-Aug-19 00:29N 39°57' W 075°08'0 0.0
2017-Aug-18 23:56N 39°57' W 075°08'0 0.0
2017-Aug-18 23:29N 39°57' W 075°08'0 0.0
2017-Aug-18 22:59N 39°57' W 075°08'0 0.0
2017-Aug-18 22:23N 39°57' W 075°08'0 0.0
2017-Aug-18 21:59N 39°57' W 075°08'0 0.0
2017-Aug-18 21:29N 39°57' W 075°08'0 0.0
2017-Aug-18 20:59N 39°57' W 075°08'0 0.0
2017-Aug-18 20:29N 39°57' W 075°08'0 0.0
2017-Aug-18 19:59N 39°57' W 075°08'0 0.0
2017-Aug-18 19:29N 39°57' W 075°08'0 0.0
2017-Aug-18 18:59N 39°57' W 075°08'0 0.0
2017-Aug-18 18:29N 39°57' W 075°08'0 0.0
2017-Aug-18 17:59N 39°57' W 075°08'0 0.0
2017-Aug-18 17:29N 39°57' W 075°08'0 0.0
2017-Aug-18 16:59N 39°57' W 075°08'0 0.0
2017-Aug-18 16:28N 39°57' W 075°08'0 0.0
2017-Aug-18 15:58N 39°57' W 075°08'0 0.0
2017-Aug-18 15:29N 39°57' W 075°08'0 0.0
2017-Aug-18 14:58N 39°57' W 075°08'0 0.0
2017-Aug-18 14:28N 39°57' W 075°08'0 0.0
2017-Aug-18 13:28N 39°57' W 075°08'0 0.0
2017-Aug-18 12:58N 39°57' W 075°08'0 0.0
2017-Aug-18 12:28N 39°57' W 075°08'0 0.0
2017-Aug-18 11:59N 39°57' W 075°08'0 0.0
2017-Aug-18 11:28N 39°57' W 075°08'0 0.0
2017-Aug-18 10:58N 39°57' W 075°08'0 0.0
2017-Aug-18 10:28N 39°57' W 075°08'0 0.0
2017-Aug-18 09:58N 39°57' W 075°08'0 0.0
2017-Aug-18 09:28N 39°57' W 075°08'0 0.0
2017-Aug-18 08:58N 39°57' W 075°08'0 0.0
2017-Aug-18 08:28N 39°57' W 075°08'0 0.0
2017-Aug-18 07:58N 39°57' W 075°08'0 0.0
2017-Aug-18 07:28N 39°57' W 075°08'0 0.0
2017-Aug-18 06:58N 39°57' W 075°08'0 0.0
2017-Aug-18 06:28N 39°57' W 075°08'0 0.0
2017-Aug-18 05:58N 39°57' W 075°08'0 0.0
2017-Aug-18 05:25N 39°57' W 075°08'0 0.0
2017-Aug-18 04:58N 39°57' W 075°08'0 0.0
2017-Aug-18 04:28N 39°57' W 075°08'0 0.0
2017-Aug-18 03:58N 39°57' W 075°08'0 0.0
2017-Aug-18 03:25N 39°57' W 075°08'0 0.0
2017-Aug-18 02:58N 39°57' W 075°08'0 0.0
2017-Aug-18 02:28N 39°57' W 075°08'0 0.0
2017-Aug-18 01:58N 39°57' W 075°08'0 0.0
2017-Aug-18 01:28N 39°57' W 075°08'0 0.0
2017-Aug-18 00:58N 39°57' W 075°08'0 0.0
2017-Aug-18 00:30N 39°57' W 075°08'1 1.6
2017-Aug-18 00:01N 39°56' W 075°08'2 3.7
2017-Aug-17 23:30N 39°54' W 075°08'2 3.4
2017-Aug-17 23:00N 39°56' W 075°08'1 1.7
2017-Aug-17 22:30N 39°57' W 075°08'0 0.1
2017-Aug-17 21:59N 39°57' W 075°08'0 0.0
2017-Aug-17 21:29N 39°57' W 075°08'0 0.0
2017-Aug-17 20:59N 39°57' W 075°08'0 0.0
2017-Aug-17 20:29N 39°57' W 075°08'0 0.0
2017-Aug-17 19:59N 39°57' W 075°08'0 0.0
2017-Aug-17 19:29N 39°57' W 075°08'0 0.0
2017-Aug-17 18:59N 39°57' W 075°08'0 0.0
2017-Aug-17 18:29N 39°57' W 075°08'0 0.0
2017-Aug-17 17:59N 39°57' W 075°08'0 0.0
2017-Aug-17 17:29N 39°57' W 075°08'0 0.0
2017-Aug-17 16:59N 39°57' W 075°08'0 0.0
2017-Aug-17 16:29N 39°57' W 075°08'0 0.0
2017-Aug-17 15:59N 39°57' W 075°08'0 0.0
2017-Aug-17 15:29N 39°57' W 075°08'0 0.0
2017-Aug-17 14:59N 39°57' W 075°08'0 0.0
2017-Aug-17 14:29N 39°57' W 075°08'0 0.0
2017-Aug-17 13:59N 39°57' W 075°08'0 0.0
2017-Aug-17 13:29N 39°57' W 075°08'0 0.0
2017-Aug-17 12:59N 39°57' W 075°08'0 0.0
2017-Aug-17 12:29N 39°57' W 075°08'0 0.0
2017-Aug-17 11:59N 39°57' W 075°08'0 0.0
2017-Aug-17 11:28N 39°57' W 075°08'0 0.0
2017-Aug-17 10:59N 39°57' W 075°08'0 0.0
2017-Aug-17 10:28N 39°57' W 075°08'0 0.0
2017-Aug-17 09:58N 39°57' W 075°08'0 0.0
2017-Aug-17 09:28N 39°57' W 075°08'0 0.0
2017-Aug-17 08:58N 39°57' W 075°08'0 0.0
2017-Aug-17 08:28N 39°57' W 075°08'0 0.0
2017-Aug-17 07:58N 39°57' W 075°08'0 0.0
2017-Aug-17 07:28N 39°57' W 075°08'0 0.0
2017-Aug-17 06:58N 39°57' W 075°08'0 0.0
2017-Aug-17 06:28N 39°57' W 075°08'0 0.0
2017-Aug-17 05:58N 39°57' W 075°08'0 0.0
2017-Aug-17 05:28N 39°57' W 075°08'0 0.0
2017-Aug-17 04:58N 39°57' W 075°08'0 0.0
2017-Aug-17 04:28N 39°57' W 075°08'0 0.0
2017-Aug-17 03:58N 39°57' W 075°08'0 0.0
2017-Aug-17 03:28N 39°57' W 075°08'0 0.0
2017-Aug-17 02:58N 39°57' W 075°08'0 0.0
2017-Aug-17 02:28N 39°57' W 075°08'0 0.0
2017-Aug-17 01:58N 39°57' W 075°08'0 0.0
2017-Aug-17 01:28N 39°57' W 075°08'0 0.0
2017-Aug-17 00:58N 39°57' W 075°08'0 0.0
2017-Aug-17 00:28N 39°57' W 075°08'0 0.0
2017-Aug-16 23:58N 39°57' W 075°08'0 0.0
2017-Aug-16 23:28N 39°57' W 075°08'0 0.0
2017-Aug-16 22:58N 39°57' W 075°08'0 0.0
2017-Aug-16 22:28N 39°57' W 075°08'0 0.0
2017-Aug-16 21:58N 39°57' W 075°08'0 0.0
2017-Aug-16 21:28N 39°57' W 075°08'0 0.0
2017-Aug-16 20:58N 39°57' W 075°08'0 0.0
2017-Aug-16 20:28N 39°57' W 075°08'0 0.0
2017-Aug-16 19:58N 39°57' W 075°08'0 0.0
2017-Aug-16 19:28N 39°57' W 075°08'0 0.0
2017-Aug-16 18:58N 39°57' W 075°08'0 0.0
2017-Aug-16 18:28N 39°57' W 075°08'0 0.0
2017-Aug-16 17:58N 39°57' W 075°08'0 0.0
2017-Aug-16 17:28N 39°57' W 075°08'0 0.0
2017-Aug-16 16:55N 39°57' W 075°08'0 0.0
2017-Aug-16 16:28N 39°57' W 075°08'0 0.0
2017-Aug-16 15:58N 39°57' W 075°08'0 0.0
2017-Aug-16 15:28N 39°57' W 075°08'0 0.0
2017-Aug-16 14:58N 39°57' W 075°08'0 0.0
2017-Aug-16 14:28N 39°57' W 075°08'0 0.0
2017-Aug-16 13:58N 39°57' W 075°08'0 0.0
2017-Aug-16 13:28N 39°57' W 075°08'0 0.0
2017-Aug-16 12:58N 39°57' W 075°08'0 0.0
2017-Aug-16 12:28N 39°57' W 075°08'0 0.0
2017-Aug-16 11:58N 39°57' W 075°08'0 0.0
2017-Aug-16 11:28N 39°57' W 075°08'0 0.0
2017-Aug-16 10:58N 39°57' W 075°08'0 0.0
2017-Aug-16 10:28N 39°57' W 075°08'0 0.0
2017-Aug-16 09:58N 39°57' W 075°08'0 0.0
2017-Aug-16 09:28N 39°57' W 075°08'0 0.0
2017-Aug-16 08:58N 39°57' W 075°08'0 0.0
2017-Aug-16 08:28N 39°57' W 075°08'0 0.0
2017-Aug-16 07:58N 39°57' W 075°08'0 0.0
2017-Aug-16 07:28N 39°57' W 075°08'0 0.0
2017-Aug-16 06:58N 39°57' W 075°08'0 0.0
2017-Aug-16 06:28N 39°57' W 075°08'0 0.0
2017-Aug-16 05:58N 39°57' W 075°08'0 0.0
2017-Aug-16 05:31N 39°57' W 075°08'0 0.0
2017-Aug-16 04:58N 39°57' W 075°08'0 0.0
2017-Aug-16 04:28N 39°57' W 075°08'0 0.0
2017-Aug-16 03:58N 39°57' W 075°08'0 0.0
2017-Aug-16 03:28N 39°57' W 075°08'0 0.0
2017-Aug-16 02:58N 39°57' W 075°08'0 0.0
2017-Aug-16 02:28N 39°57' W 075°08'0 0.0
2017-Aug-16 01:58N 39°57' W 075°08'0 0.0
2017-Aug-16 01:28N 39°57' W 075°08'0 0.0
2017-Aug-16 00:58N 39°57' W 075°08'0 0.0
2017-Aug-16 00:28N 39°57' W 075°08'0 0.0
2017-Aug-15 23:58N 39°57' W 075°08'0 0.0
2017-Aug-15 23:28N 39°57' W 075°08'0 0.0
2017-Aug-15 22:58N 39°57' W 075°08'0 0.0
2017-Aug-15 22:28N 39°57' W 075°08'0 0.0
2017-Aug-15 21:58N 39°57' W 075°08'0 0.0
2017-Aug-15 21:30N 39°57' W 075°08'0 0.0
2017-Aug-15 20:58N 39°57' W 075°08'0 0.0
2017-Aug-15 20:28N 39°57' W 075°08'0 0.0
2017-Aug-15 19:58N 39°57' W 075°08'0 0.0
2017-Aug-15 19:28N 39°57' W 075°08'0 0.0
2017-Aug-15 19:01N 39°57' W 075°08'0 0.0
2017-Aug-15 18:30N 39°57' W 075°08'0 0.0
2017-Aug-15 17:57N 39°57' W 075°08'0 0.0
2017-Aug-15 17:30N 39°57' W 075°08'0 0.0
2017-Aug-15 16:57N 39°57' W 075°08'0 0.0
2017-Aug-15 16:30N 39°57' W 075°08'0 0.0
2017-Aug-15 16:00N 39°57' W 075°08'0 0.0
2017-Aug-15 15:30N 39°57' W 075°08'0 0.0
2017-Aug-15 15:00N 39°57' W 075°08'0 0.1
2017-Aug-15 14:31N 39°57' W 075°08'1 2.9
2017-Aug-15 14:01N 39°55' W 075°08'2 4.4
2017-Aug-15 13:31N 39°53' W 075°09'2 4.9
2017-Aug-15 13:00N 39°53' W 075°12'3 5.2
2017-Aug-15 12:30N 39°51' W 075°15'3 5.4
2017-Aug-15 12:01N 39°51' W 075°18'3 5.7
2017-Aug-15 11:30N 39°50' W 075°22'3 6.5
2017-Aug-15 11:00N 39°48' W 075°25'3 6.5
2017-Aug-15 10:31N 39°46' W 075°28'3 6.6
2017-Aug-15 10:00N 39°43' W 075°30'3 6.9
2017-Aug-15 09:31N 39°40' W 075°32'4 7.6
2017-Aug-15 09:01N 39°37' W 075°35'3 6.1
2017-Aug-15 08:31N 39°34' W 075°34'3 7.0
2017-Aug-15 08:00N 39°33' W 075°39'4 7.4
2017-Aug-15 07:31N 39°33' W 075°43'4 7.8
2017-Aug-15 07:01N 39°32' W 075°48'4 7.6
2017-Aug-15 06:30N 39°31' W 075°53'3 6.4
2017-Aug-15 06:00N 39°29' W 075°57'3 5.7
2017-Aug-15 05:30N 39°27' W 075°59'3 5.5
2017-Aug-15 05:00N 39°25' W 076°02'3 5.1
2017-Aug-15 04:30N 39°23' W 076°04'3 5.2
2017-Aug-15 04:00N 39°22' W 076°07'2 5.0
2017-Aug-15 03:30N 39°21' W 076°10'2 4.7
2017-Aug-15 03:00N 39°19' W 076°12'2 4.7
2017-Aug-15 02:30N 39°17' W 076°13'2 4.8
2017-Aug-15 02:00N 39°15' W 076°14'2 4.2
2017-Aug-15 01:30N 39°13' W 076°15'2 3.5
2017-Aug-15 01:00N 39°12' W 076°17'2 3.4
2017-Aug-15 00:30N 39°10' W 076°18'2 3.3
2017-Aug-15 00:00N 39°09' W 076°19'2 3.4
2017-Aug-14 23:30N 39°07' W 076°19'2 3.5
2017-Aug-14 23:00N 39°05' W 076°20'2 3.7
2017-Aug-14 22:30N 39°04' W 076°21'2 3.5
2017-Aug-14 22:00N 39°02' W 076°21'2 3.5
2017-Aug-14 21:30N 39°00' W 076°22'2 3.3
2017-Aug-14 21:00N 38°59' W 076°23'2 3.7
2017-Aug-14 20:30N 38°57' W 076°23'2 3.5
2017-Aug-14 20:00N 38°55' W 076°23'2 3.2
2017-Aug-14 19:30N 38°54' W 076°23'2 3.3
2017-Aug-14 19:00N 38°52' W 076°24'2 3.4
2017-Aug-14 18:30N 38°50' W 076°24'6 3.0
2017-Aug-14 16:31N 38°52' W 076°17'0 1.2
2017-Aug-14 16:30N 38°52' W 076°17'1 1.2
2017-Aug-14 15:59N 38°52' W 076°16'1 1.2
2017-Aug-14 15:21N 38°53' W 076°15'0 1.3
2017-Aug-14 15:00N 38°53' W 076°15'1 1.6
2017-Aug-14 14:28N 38°52' W 076°14'1 2.8
2017-Aug-14 13:59N 38°51' W 076°14'2 4.6
2017-Aug-14 13:30N 38°49' W 076°13'1 1.7
2017-Aug-14 12:40N 38°47' W 076°13'0 0.0
2017-Aug-14 12:28N 38°47' W 076°13'0 0.0
2017-Aug-14 11:58N 38°47' W 076°13'0 0.0
2017-Aug-14 10:52N 38°47' W 076°13'0 0.0
2017-Aug-14 10:28N 38°47' W 076°13'0 0.0
2017-Aug-14 09:58N 38°47' W 076°13'0 0.0
2017-Aug-14 09:28N 38°47' W 076°13'0 0.0
2017-Aug-14 08:58N 38°47' W 076°13'  
Track history (hours):
 
Tides and Currents Weather Stations Pressure Air Temp Water Temp Dewpoint Dewpoint Depression Visibility Wind Speed Wind Dir Waves Ship Positions

Pride of Baltimore II (United States)

Reproduction of an 1812-era Baltimore Clipper privateer.

Ship's website: http://www.pride2.org/

Owner: PRIDE OF BALTIMORE INC, BALTIMORE, MD. More information available from US FCC via Universal Licensing System and Coast Guard Vessel Documentation Center.

Last reported at 2017-Aug-23 11:59 UTC. Time now 2017-Aug-23 11:57 UTC.
Position N 39°17' W 076°37'.

Type: Sailing vessel. MMSI: 303302000.

Date/timePositionNaut miles runAvg speedWind from/ knotsBaromVisibWave heightAir tempDewpointWater temp
2017-Aug-23 11:59N 39°17' W 076°37'0 0.0
2017-Aug-23 11:29N 39°17' W 076°37'0 0.0
2017-Aug-23 10:59N 39°17' W 076°37'0 0.0
2017-Aug-23 10:29N 39°17' W 076°37'0 0.0
2017-Aug-23 09:59N 39°17' W 076°37'0 0.0
2017-Aug-23 09:29N 39°17' W 076°37'0 0.0
2017-Aug-23 08:59N 39°17' W 076°37'0 0.0
2017-Aug-23 08:29N 39°17' W 076°37'0 0.0
2017-Aug-23 07:59N 39°17' W 076°37'0 0.0
2017-Aug-23 07:23N 39°17' W 076°37'0 0.0
2017-Aug-23 06:59N 39°17' W 076°37'0 0.0
2017-Aug-23 06:29N 39°17' W 076°37'0 0.0
2017-Aug-23 05:59N 39°17' W 076°37'0 0.0
2017-Aug-23 05:29N 39°17' W 076°37'0 0.0
2017-Aug-23 04:59N 39°17' W 076°37'0 0.0
2017-Aug-23 04:29N 39°17' W 076°37'0 0.0
2017-Aug-23 03:59N 39°17' W 076°37'0 0.0
2017-Aug-23 03:28N 39°17' W 076°37'0 0.0
2017-Aug-23 02:58N 39°17' W 076°37'0 0.0
2017-Aug-23 02:28N 39°17' W 076°37'0 0.0
2017-Aug-23 01:58N 39°17' W 076°37'0 0.0
2017-Aug-23 01:28N 39°17' W 076°37'0 0.0
2017-Aug-23 00:58N 39°17' W 076°37'0 0.0
2017-Aug-23 00:28N 39°17' W 076°37'0 0.0
2017-Aug-22 23:58N 39°17' W 076°37'0 0.0
2017-Aug-22 23:28N 39°17' W 076°37'0 0.0
2017-Aug-22 22:58N 39°17' W 076°37'0 0.5
2017-Aug-22 22:31N 39°17' W 076°36'3 5.9
2017-Aug-22 22:00N 39°15' W 076°34'4 8.0
2017-Aug-22 21:30N 39°12' W 076°30'4 8.8
2017-Aug-22 21:00N 39°10' W 076°25'10 6.1
2017-Aug-22 19:17N 39°16' W 076°14'3 7.1
2017-Aug-22 18:50N 39°19' W 076°12'3 7.5
2017-Aug-22 18:28N 39°21' W 076°10'4 7.7
2017-Aug-22 17:55N 39°23' W 076°05'3 7.6
2017-Aug-22 17:30N 39°25' W 076°02'4 7.3
2017-Aug-22 17:00N 39°28' W 075°59'4 7.2
2017-Aug-22 16:30N 39°30' W 075°55'3 6.5
2017-Aug-22 16:00N 39°32' W 075°51'3 6.3
2017-Aug-22 15:30N 39°32' W 075°47'3 6.1
2017-Aug-22 15:00N 39°33' W 075°44'3 5.8
2017-Aug-22 14:30N 39°33' W 075°40'3 5.5
2017-Aug-22 14:01N 39°33' W 075°36'3 5.2
2017-Aug-22 13:30N 39°34' W 075°33'3 6.3
2017-Aug-22 13:00N 39°37' W 075°35'4 7.3
2017-Aug-22 12:30N 39°40' W 075°32'4 8.2
2017-Aug-22 12:00N 39°44' W 075°30'4 8.3
2017-Aug-22 11:30N 39°47' W 075°27'4 8.5
2017-Aug-22 11:00N 39°50' W 075°22'4 8.7
2017-Aug-22 10:30N 39°51' W 075°17'4 8.5
2017-Aug-22 10:00N 39°53' W 075°12'4 7.6
2017-Aug-22 09:30N 39°55' W 075°08'2 3.8
2017-Aug-22 08:59N 39°57' W 075°08'0 0.0
2017-Aug-22 08:29N 39°57' W 075°08'0 0.0
2017-Aug-22 07:59N 39°57' W 075°08'0 0.0
2017-Aug-22 07:29N 39°57' W 075°08'0 0.0
2017-Aug-22 06:59N 39°57' W 075°08'0 0.0
2017-Aug-22 06:29N 39°57' W 075°08'0 0.0
2017-Aug-22 05:59N 39°57' W 075°08'0 0.0
2017-Aug-22 05:29N 39°57' W 075°08'0 0.0
2017-Aug-22 04:59N 39°57' W 075°08'0 0.0
2017-Aug-22 04:29N 39°57' W 075°08'0 0.0
2017-Aug-22 03:59N 39°57' W 075°08'0 0.0
2017-Aug-22 03:29N 39°57' W 075°08'0 0.0
2017-Aug-22 02:59N 39°57' W 075°08'0 0.0
2017-Aug-22 02:29N 39°57' W 075°08'0 0.0
2017-Aug-22 01:59N 39°57' W 075°08'0 0.0
2017-Aug-22 01:29N 39°57' W 075°08'0 0.0
2017-Aug-22 00:59N 39°57' W 075°08'0 0.0
2017-Aug-22 00:29N 39°57' W 075°08'0 0.0
2017-Aug-21 23:59N 39°57' W 075°08'0 0.0
2017-Aug-21 23:29N 39°57' W 075°08'0 0.0
2017-Aug-21 22:59N 39°57' W 075°08'0 0.0
2017-Aug-21 22:29N 39°57' W 075°08'0 0.0
2017-Aug-21 21:59N 39°57' W 075°08'0 0.0
2017-Aug-21 21:29N 39°57' W 075°08'0 0.0
2017-Aug-21 20:56N 39°57' W 075°08'0 0.0
2017-Aug-21 20:29N 39°57' W 075°08'0 0.0
2017-Aug-21 19:59N 39°57' W 075°08'0 0.0
2017-Aug-21 19:29N 39°57' W 075°08'0 0.0
2017-Aug-21 18:59N 39°57' W 075°08'0 0.0
2017-Aug-21 18:29N 39°57' W 075°08'0 0.0
2017-Aug-21 17:59N 39°57' W 075°08'0 0.0
2017-Aug-21 17:23N 39°57' W 075°08'0 0.0
2017-Aug-21 16:59N 39°57' W 075°08'0 0.0
2017-Aug-21 16:29N 39°57' W 075°08'0 0.0
2017-Aug-21 15:59N 39°57' W 075°08'0 0.0
2017-Aug-21 15:29N 39°57' W 075°08'0 0.0
2017-Aug-21 14:59N 39°57' W 075°08'0 0.0
2017-Aug-21 14:29N 39°57' W 075°08'0 0.0
2017-Aug-21 13:59N 39°57' W 075°08'0 0.0
2017-Aug-21 13:29N 39°57' W 075°08'0 0.0
2017-Aug-21 12:59N 39°57' W 075°08'0 0.0
2017-Aug-21 12:29N 39°57' W 075°08'0 0.0
2017-Aug-21 11:59N 39°57' W 075°08'0 0.0
2017-Aug-21 11:29N 39°57' W 075°08'0 0.0
2017-Aug-21 10:59N 39°57' W 075°08'0 0.0
2017-Aug-21 10:29N 39°57' W 075°08'0 0.0
2017-Aug-21 09:59N 39°57' W 075°08'0 0.0
2017-Aug-21 09:29N 39°57' W 075°08'0 0.0
2017-Aug-21 08:59N 39°57' W 075°08'0 0.0
2017-Aug-21 08:29N 39°57' W 075°08'0 0.0
2017-Aug-21 07:59N 39°57' W 075°08'0 0.0
2017-Aug-21 07:29N 39°57' W 075°08'0 0.0
2017-Aug-21 06:59N 39°57' W 075°08'0 0.0
2017-Aug-21 06:29N 39°57' W 075°08'0 0.0
2017-Aug-21 05:59N 39°57' W 075°08'0 0.0
2017-Aug-21 05:29N 39°57' W 075°08'0 0.0
2017-Aug-21 04:59N 39°57' W 075°08'0 0.0
2017-Aug-21 04:29N 39°57' W 075°08'0 0.0
2017-Aug-21 03:59N 39°57' W 075°08'0 0.0
2017-Aug-21 03:29N 39°57' W 075°08'0 0.0
2017-Aug-21 02:59N 39°57' W 075°08'0 0.0
2017-Aug-21 02:29N 39°57' W 075°08'0 0.0
2017-Aug-21 01:59N 39°57' W 075°08'0 0.0
2017-Aug-21 01:28N 39°57' W 075°08'0 0.0
2017-Aug-21 00:58N 39°57' W 075°08'0 0.0
2017-Aug-21 00:28N 39°57' W 075°08'0 0.0
2017-Aug-20 23:58N 39°57' W 075°08'0 0.0
2017-Aug-20 23:28N 39°57' W 075°08'0 0.0
2017-Aug-20 22:58N 39°57' W 075°08'0 0.0
2017-Aug-20 22:28N 39°57' W 075°08'0 0.0
2017-Aug-20 21:58N 39°57' W 075°08'0 0.0
2017-Aug-20 21:28N 39°57' W 075°08'0 0.0
2017-Aug-20 20:58N 39°57' W 075°08'2 3.4
2017-Aug-20 20:31N 39°55' W 075°08'1 2.0
2017-Aug-20 20:00N 39°54' W 075°08'2 3.5
2017-Aug-20 19:30N 39°56' W 075°08'1 1.5
2017-Aug-20 19:00N 39°57' W 075°08'0 0.0
2017-Aug-20 18:30N 39°57' W 075°08'0 0.0
2017-Aug-20 17:54N 39°57' W 075°08'0 0.0
2017-Aug-20 17:30N 39°57' W 075°08'0 0.0
2017-Aug-20 17:00N 39°57' W 075°08'0 0.0
2017-Aug-20 16:30N 39°57' W 075°08'0 0.0
2017-Aug-20 16:00N 39°57' W 075°08'0 0.0
2017-Aug-20 15:30N 39°57' W 075°08'0 0.0
2017-Aug-20 15:00N 39°57' W 075°08'0 0.0
2017-Aug-20 14:30N 39°57' W 075°08'0 0.0
2017-Aug-20 14:00N 39°57' W 075°08'0 0.0
2017-Aug-20 13:30N 39°57' W 075°08'0 0.0
2017-Aug-20 12:59N 39°57' W 075°08'0 0.0
2017-Aug-20 12:29N 39°57' W 075°08'0 0.0
2017-Aug-20 11:59N 39°57' W 075°08'0 0.0
2017-Aug-20 11:29N 39°57' W 075°08'0 0.0
2017-Aug-20 10:59N 39°57' W 075°08'0 0.0
2017-Aug-20 10:29N 39°57' W 075°08'0 0.0
2017-Aug-20 09:59N 39°57' W 075°08'0 0.0
2017-Aug-20 09:29N 39°57' W 075°08'0 0.0
2017-Aug-20 08:59N 39°57' W 075°08'0 0.0
2017-Aug-20 08:29N 39°57' W 075°08'0 0.0
2017-Aug-20 07:59N 39°57' W 075°08'0 0.0
2017-Aug-20 07:29N 39°57' W 075°08'0 0.0
2017-Aug-20 06:59N 39°57' W 075°08'0 0.0
2017-Aug-20 06:29N 39°57' W 075°08'0 0.0
2017-Aug-20 05:59N 39°57' W 075°08'0 0.0
2017-Aug-20 05:29N 39°57' W 075°08'0 0.0
2017-Aug-20 04:59N 39°57' W 075°08'0 0.0
2017-Aug-20 04:29N 39°57' W 075°08'0 0.0
2017-Aug-20 03:59N 39°57' W 075°08'0 0.0
2017-Aug-20 03:29N 39°57' W 075°08'0 0.0
2017-Aug-20 02:59N 39°57' W 075°08'0 0.0
2017-Aug-20 02:29N 39°57' W 075°08'0 0.0
2017-Aug-20 01:59N 39°57' W 075°08'0 0.0
2017-Aug-20 01:29N 39°57' W 075°08'0 0.0
2017-Aug-20 00:59N 39°57' W 075°08'0 0.0
2017-Aug-20 00:29N 39°57' W 075°08'0 0.0
2017-Aug-19 23:59N 39°57' W 075°08'0 0.0
2017-Aug-19 23:29N 39°57' W 075°08'0 0.0
2017-Aug-19 22:59N 39°57' W 075°08'0 0.0
2017-Aug-19 22:29N 39°57' W 075°08'0 0.0
2017-Aug-19 21:59N 39°57' W 075°08'0 0.0
2017-Aug-19 21:29N 39°57' W 075°08'0 0.0
2017-Aug-19 20:59N 39°57' W 075°08'0 1.0
2017-Aug-19 20:30N 39°56' W 075°08'2 3.7
2017-Aug-19 20:00N 39°54' W 075°08'0 0.5
2017-Aug-19 19:30N 39°55' W 075°08'2 4.1
2017-Aug-19 18:59N 39°57' W 075°08'0 0.0
2017-Aug-19 18:29N 39°57' W 075°08'0 0.0
2017-Aug-19 17:59N 39°57' W 075°08'0 0.0
2017-Aug-19 17:29N 39°57' W 075°08'0 0.0
2017-Aug-19 16:59N 39°57' W 075°08'0 0.0
2017-Aug-19 16:29N 39°57' W 075°08'0 0.0
2017-Aug-19 15:59N 39°57' W 075°08'0 0.0
2017-Aug-19 15:29N 39°57' W 075°08'0 0.0
2017-Aug-19 14:59N 39°57' W 075°08'0 0.0
2017-Aug-19 13:59N 39°57' W 075°08'0 0.0
2017-Aug-19 13:29N 39°57' W 075°08'0 0.0
2017-Aug-19 12:59N 39°57' W 075°08'0 0.0
2017-Aug-19 12:29N 39°57' W 075°08'0 0.0
2017-Aug-19 11:59N 39°57' W 075°08'0 0.0
2017-Aug-19 11:29N 39°57' W 075°08'0 0.0
2017-Aug-19 10:59N 39°57' W 075°08'0 0.0
2017-Aug-19 10:29N 39°57' W 075°08'0 0.0
2017-Aug-19 09:59N 39°57' W 075°08'0 0.0
2017-Aug-19 09:29N 39°57' W 075°08'0 0.0
2017-Aug-19 08:59N 39°57' W 075°08'0 0.0
2017-Aug-19 08:29N 39°57' W 075°08'0 0.0
2017-Aug-19 07:59N 39°57' W 075°08'0 0.0
2017-Aug-19 07:29N 39°57' W 075°08'0 0.0
2017-Aug-19 06:59N 39°57' W 075°08'0 0.0
2017-Aug-19 06:29N 39°57' W 075°08'0 0.0
2017-Aug-19 05:59N 39°57' W 075°08'0 0.0
2017-Aug-19 05:29N 39°57' W 075°08'0 0.0
2017-Aug-19 04:59N 39°57' W 075°08'0 0.0
2017-Aug-19 04:29N 39°57' W 075°08'0 0.0
2017-Aug-19 03:59N 39°57' W 075°08'0 0.0
2017-Aug-19 03:29N 39°57' W 075°08'0 0.0
2017-Aug-19 02:59N 39°57' W 075°08'0 0.0
2017-Aug-19 02:29N 39°57' W 075°08'0 0.0
2017-Aug-19 01:59N 39°57' W 075°08'0 0.0
2017-Aug-19 01:26N 39°57' W 075°08'0 0.0
2017-Aug-19 00:59N 39°57' W 075°08'0 0.0
2017-Aug-19 00:29N 39°57' W 075°08'0 0.0
2017-Aug-18 23:56N 39°57' W 075°08'0 0.0
2017-Aug-18 23:29N 39°57' W 075°08'0 0.0
2017-Aug-18 22:59N 39°57' W 075°08'0 0.0
2017-Aug-18 22:23N 39°57' W 075°08'0 0.0
2017-Aug-18 21:59N 39°57' W 075°08'0 0.0
2017-Aug-18 21:29N 39°57' W 075°08'0 0.0
2017-Aug-18 20:59N 39°57' W 075°08'0 0.0
2017-Aug-18 20:29N 39°57' W 075°08'0 0.0
2017-Aug-18 19:59N 39°57' W 075°08'0 0.0
2017-Aug-18 19:29N 39°57' W 075°08'0 0.0
2017-Aug-18 18:59N 39°57' W 075°08'0 0.0
2017-Aug-18 18:29N 39°57' W 075°08'0 0.0
2017-Aug-18 17:59N 39°57' W 075°08'0 0.0
2017-Aug-18 17:29N 39°57' W 075°08'0 0.0
2017-Aug-18 16:59N 39°57' W 075°08'0 0.0
2017-Aug-18 16:28N 39°57' W 075°08'0 0.0
2017-Aug-18 15:58N 39°57' W 075°08'0 0.0
2017-Aug-18 15:29N 39°57' W 075°08'0 0.0
2017-Aug-18 14:58N 39°57' W 075°08'0 0.0
2017-Aug-18 14:28N 39°57' W 075°08'0 0.0
2017-Aug-18 13:28N 39°57' W 075°08'0 0.0
2017-Aug-18 12:58N 39°57' W 075°08'0 0.0
2017-Aug-18 12:28N 39°57' W 075°08'0 0.0
2017-Aug-18 11:59N 39°57' W 075°08'0 0.0
2017-Aug-18 11:28N 39°57' W 075°08'0 0.0
2017-Aug-18 10:58N 39°57' W 075°08'0 0.0
2017-Aug-18 10:28N 39°57' W 075°08'0 0.0
2017-Aug-18 09:58N 39°57' W 075°08'0 0.0
2017-Aug-18 09:28N 39°57' W 075°08'0 0.0
2017-Aug-18 08:58N 39°57' W 075°08'0 0.0
2017-Aug-18 08:28N 39°57' W 075°08'0 0.0
2017-Aug-18 07:58N 39°57' W 075°08'0 0.0
2017-Aug-18 07:28N 39°57' W 075°08'0 0.0
2017-Aug-18 06:58N 39°57' W 075°08'0 0.0
2017-Aug-18 06:28N 39°57' W 075°08'0 0.0
2017-Aug-18 05:58N 39°57' W 075°08'0 0.0
2017-Aug-18 05:25N 39°57' W 075°08'0 0.0
2017-Aug-18 04:58N 39°57' W 075°08'0 0.0
2017-Aug-18 04:28N 39°57' W 075°08'0 0.0
2017-Aug-18 03:58N 39°57' W 075°08'0 0.0
2017-Aug-18 03:25N 39°57' W 075°08'0 0.0
2017-Aug-18 02:58N 39°57' W 075°08'0 0.0
2017-Aug-18 02:28N 39°57' W 075°08'0 0.0
2017-Aug-18 01:58N 39°57' W 075°08'0 0.0
2017-Aug-18 01:28N 39°57' W 075°08'0 0.0
2017-Aug-18 00:58N 39°57' W 075°08'0 0.0
2017-Aug-18 00:30N 39°57' W 075°08'1 1.6
2017-Aug-18 00:01N 39°56' W 075°08'2 3.7
2017-Aug-17 23:30N 39°54' W 075°08'2 3.4
2017-Aug-17 23:00N 39°56' W 075°08'1 1.7
2017-Aug-17 22:30N 39°57' W 075°08'0 0.1
2017-Aug-17 21:59N 39°57' W 075°08'0 0.0
2017-Aug-17 21:29N 39°57' W 075°08'0 0.0
2017-Aug-17 20:59N 39°57' W 075°08'0 0.0
2017-Aug-17 20:29N 39°57' W 075°08'0 0.0
2017-Aug-17 19:59N 39°57' W 075°08'0 0.0
2017-Aug-17 19:29N 39°57' W 075°08'0 0.0
2017-Aug-17 18:59N 39°57' W 075°08'0 0.0
2017-Aug-17 18:29N 39°57' W 075°08'0 0.0
2017-Aug-17 17:59N 39°57' W 075°08'0 0.0
2017-Aug-17 17:29N 39°57' W 075°08'0 0.0
2017-Aug-17 16:59N 39°57' W 075°08'0 0.0
2017-Aug-17 16:29N 39°57' W 075°08'0 0.0
2017-Aug-17 15:59N 39°57' W 075°08'0 0.0
2017-Aug-17 15:29N 39°57' W 075°08'0 0.0
2017-Aug-17 14:59N 39°57' W 075°08'0 0.0
2017-Aug-17 14:29N 39°57' W 075°08'0 0.0
2017-Aug-17 13:59N 39°57' W 075°08'0 0.0
2017-Aug-17 13:29N 39°57' W 075°08'0 0.0
2017-Aug-17 12:59N 39°57' W 075°08'0 0.0
2017-Aug-17 12:29N 39°57' W 075°08'0 0.0
2017-Aug-17 11:59N 39°57' W 075°08'0 0.0
2017-Aug-17 11:28N 39°57' W 075°08'0 0.0
2017-Aug-17 10:59N 39°57' W 075°08'0 0.0
2017-Aug-17 10:28N 39°57' W 075°08'0 0.0
2017-Aug-17 09:58N 39°57' W 075°08'0 0.0
2017-Aug-17 09:28N 39°57' W 075°08'0 0.0
2017-Aug-17 08:58N 39°57' W 075°08'0 0.0
2017-Aug-17 08:28N 39°57' W 075°08'0 0.0
2017-Aug-17 07:58N 39°57' W 075°08'0 0.0
2017-Aug-17 07:28N 39°57' W 075°08'0 0.0
2017-Aug-17 06:58N 39°57' W 075°08'0 0.0
2017-Aug-17 06:28N 39°57' W 075°08'0 0.0
2017-Aug-17 05:58N 39°57' W 075°08'0 0.0
2017-Aug-17 05:28N 39°57' W 075°08'0 0.0
2017-Aug-17 04:58N 39°57' W 075°08'0 0.0
2017-Aug-17 04:28N 39°57' W 075°08'0 0.0
2017-Aug-17 03:58N 39°57' W 075°08'0 0.0
2017-Aug-17 03:28N 39°57' W 075°08'0 0.0
2017-Aug-17 02:58N 39°57' W 075°08'0 0.0
2017-Aug-17 02:28N 39°57' W 075°08'0 0.0
2017-Aug-17 01:58N 39°57' W 075°08'0 0.0
2017-Aug-17 01:28N 39°57' W 075°08'0 0.0
2017-Aug-17 00:58N 39°57' W 075°08'0 0.0
2017-Aug-17 00:28N 39°57' W 075°08'0 0.0
2017-Aug-16 23:58N 39°57' W 075°08'0 0.0
2017-Aug-16 23:28N 39°57' W 075°08'0 0.0
2017-Aug-16 22:58N 39°57' W 075°08'0 0.0
2017-Aug-16 22:28N 39°57' W 075°08'0 0.0
2017-Aug-16 21:58N 39°57' W 075°08'0 0.0
2017-Aug-16 21:28N 39°57' W 075°08'0 0.0
2017-Aug-16 20:58N 39°57' W 075°08'0 0.0
2017-Aug-16 20:28N 39°57' W 075°08'0 0.0
2017-Aug-16 19:58N 39°57' W 075°08'0 0.0
2017-Aug-16 19:28N 39°57' W 075°08'0 0.0
2017-Aug-16 18:58N 39°57' W 075°08'0 0.0
2017-Aug-16 18:28N 39°57' W 075°08'0 0.0
2017-Aug-16 17:58N 39°57' W 075°08'0 0.0
2017-Aug-16 17:28N 39°57' W 075°08'0 0.0
2017-Aug-16 16:55N 39°57' W 075°08'0 0.0
2017-Aug-16 16:28N 39°57' W 075°08'0 0.0
2017-Aug-16 15:58N 39°57' W 075°08'0 0.0
2017-Aug-16 15:28N 39°57' W 075°08'0 0.0
2017-Aug-16 14:58N 39°57' W 075°08'0 0.0
2017-Aug-16 14:28N 39°57' W 075°08'0 0.0
2017-Aug-16 13:58N 39°57' W 075°08'0 0.0
2017-Aug-16 13:28N 39°57' W 075°08'0 0.0
2017-Aug-16 12:58N 39°57' W 075°08'0 0.0
2017-Aug-16 12:28N 39°57' W 075°08'0 0.0
2017-Aug-16 11:58N 39°57' W 075°08'0 0.0
2017-Aug-16 11:28N 39°57' W 075°08'0 0.0
2017-Aug-16 10:58N 39°57' W 075°08'0 0.0
2017-Aug-16 10:28N 39°57' W 075°08'0 0.0
2017-Aug-16 09:58N 39°57' W 075°08'0 0.0
2017-Aug-16 09:28N 39°57' W 075°08'0 0.0
2017-Aug-16 08:58N 39°57' W 075°08'0 0.0
2017-Aug-16 08:28N 39°57' W 075°08'0 0.0
2017-Aug-16 07:58N 39°57' W 075°08'0 0.0
2017-Aug-16 07:28N 39°57' W 075°08'0 0.0
2017-Aug-16 06:58N 39°57' W 075°08'0 0.0
2017-Aug-16 06:28N 39°57' W 075°08'0 0.0
2017-Aug-16 05:58N 39°57' W 075°08'0 0.0
2017-Aug-16 05:31N 39°57' W 075°08'0 0.0
2017-Aug-16 04:58N 39°57' W 075°08'0 0.0
2017-Aug-16 04:28N 39°57' W 075°08'0 0.0
2017-Aug-16 03:58N 39°57' W 075°08'0 0.0
2017-Aug-16 03:28N 39°57' W 075°08'0 0.0
2017-Aug-16 02:58N 39°57' W 075°08'0 0.0
2017-Aug-16 02:28N 39°57' W 075°08'0 0.0
2017-Aug-16 01:58N 39°57' W 075°08'0 0.0
2017-Aug-16 01:28N 39°57' W 075°08'0 0.0
2017-Aug-16 00:58N 39°57' W 075°08'0 0.0
2017-Aug-16 00:28N 39°57' W 075°08'0 0.0
2017-Aug-15 23:58N 39°57' W 075°08'0 0.0
2017-Aug-15 23:28N 39°57' W 075°08'0 0.0
2017-Aug-15 22:58N 39°57' W 075°08'0 0.0
2017-Aug-15 22:28N 39°57' W 075°08'0 0.0
2017-Aug-15 21:58N 39°57' W 075°08'0 0.0
2017-Aug-15 21:30N 39°57' W 075°08'0 0.0
2017-Aug-15 20:58N 39°57' W 075°08'0 0.0
2017-Aug-15 20:28N 39°57' W 075°08'0 0.0
2017-Aug-15 19:58N 39°57' W 075°08'0 0.0
2017-Aug-15 19:28N 39°57' W 075°08'0 0.0
2017-Aug-15 19:01N 39°57' W 075°08'0 0.0
2017-Aug-15 18:30N 39°57' W 075°08'0 0.0
2017-Aug-15 17:57N 39°57' W 075°08'0 0.0
2017-Aug-15 17:30N 39°57' W 075°08'0 0.0
2017-Aug-15 16:57N 39°57' W 075°08'0 0.0
2017-Aug-15 16:30N 39°57' W 075°08'0 0.0
2017-Aug-15 16:00N 39°57' W 075°08'0 0.0
2017-Aug-15 15:30N 39°57' W 075°08'0 0.0
2017-Aug-15 15:00N 39°57' W 075°08'0 0.1
2017-Aug-15 14:31N 39°57' W 075°08'1 2.9
2017-Aug-15 14:01N 39°55' W 075°08'2 4.4
2017-Aug-15 13:31N 39°53' W 075°09'2 4.9
2017-Aug-15 13:00N 39°53' W 075°12'3 5.2
2017-Aug-15 12:30N 39°51' W 075°15'3 5.4
2017-Aug-15 12:01N 39°51' W 075°18'3 5.7
2017-Aug-15 11:30N 39°50' W 075°22'3 6.5
2017-Aug-15 11:00N 39°48' W 075°25'3 6.5
2017-Aug-15 10:31N 39°46' W 075°28'3 6.6
2017-Aug-15 10:00N 39°43' W 075°30'3 6.9
2017-Aug-15 09:31N 39°40' W 075°32'4 7.6
2017-Aug-15 09:01N 39°37' W 075°35'3 6.1
2017-Aug-15 08:31N 39°34' W 075°34'3 7.0
2017-Aug-15 08:00N 39°33' W 075°39'4 7.4
2017-Aug-15 07:31N 39°33' W 075°43'4 7.8
2017-Aug-15 07:01N 39°32' W 075°48'4 7.6
2017-Aug-15 06:30N 39°31' W 075°53'3 6.4
2017-Aug-15 06:00N 39°29' W 075°57'3 5.7
2017-Aug-15 05:30N 39°27' W 075°59'3 5.5
2017-Aug-15 05:00N 39°25' W 076°02'3 5.1
2017-Aug-15 04:30N 39°23' W 076°04'3 5.2
2017-Aug-15 04:00N 39°22' W 076°07'2 5.0
2017-Aug-15 03:30N 39°21' W 076°10'2 4.7
2017-Aug-15 03:00N 39°19' W 076°12'2 4.7
2017-Aug-15 02:30N 39°17' W 076°13'2 4.8
2017-Aug-15 02:00N 39°15' W 076°14'2 4.2
2017-Aug-15 01:30N 39°13' W 076°15'2 3.5
2017-Aug-15 01:00N 39°12' W 076°17'2 3.4
2017-Aug-15 00:30N 39°10' W 076°18'2 3.3
2017-Aug-15 00:00N 39°09' W 076°19'2 3.4
2017-Aug-14 23:30N 39°07' W 076°19'2 3.5
2017-Aug-14 23:00N 39°05' W 076°20'2 3.7
2017-Aug-14 22:30N 39°04' W 076°21'2 3.5
2017-Aug-14 22:00N 39°02' W 076°21'2 3.5
2017-Aug-14 21:30N 39°00' W 076°22'2 3.3
2017-Aug-14 21:00N 38°59' W 076°23'2 3.7
2017-Aug-14 20:30N 38°57' W 076°23'2 3.5
2017-Aug-14 20:00N 38°55' W 076°23'2 3.2
2017-Aug-14 19:30N 38°54' W 076°23'2 3.3
2017-Aug-14 19:00N 38°52' W 076°24'2 3.4
2017-Aug-14 18:30N 38°50' W 076°24'6 3.0
2017-Aug-14 16:31N 38°52' W 076°17'0 1.2
2017-Aug-14 16:30N 38°52' W 076°17'1 1.2
2017-Aug-14 15:59N 38°52' W 076°16'1 1.2
2017-Aug-14 15:21N 38°53' W 076°15'0 1.3
2017-Aug-14 15:00N 38°53' W 076°15'1 1.6
2017-Aug-14 14:28N 38°52' W 076°14'1 2.8
2017-Aug-14 13:59N 38°51' W 076°14'2 4.6
2017-Aug-14 13:30N 38°49' W 076°13'1 1.7
2017-Aug-14 12:40N 38°47' W 076°13'0 0.0
2017-Aug-14 12:28N 38°47' W 076°13'0 0.0
2017-Aug-14 11:58N 38°47' W 076°13'0 0.0
2017-Aug-14 10:52N 38°47' W 076°13'0 0.0
2017-Aug-14 10:28N 38°47' W 076°13'0 0.0
2017-Aug-14 09:58N 38°47' W 076°13'0 0.0
2017-Aug-14 09:28N 38°47' W 076°13'0 0.0
2017-Aug-14 08:58N 38°47' W 076°13'  

Dump ship's entire track history